createdAt,value
2023-02-07T00:02:21.641Z,24.00
2023-02-07T00:04:57.128Z,31.17
2023-02-07T00:07:36.755Z,26.83
2023-02-07T00:10:12.986Z,25.55
2023-02-07T00:12:51.453Z,29.58
2023-02-07T00:15:26.694Z,25.10
2023-02-07T00:18:04.953Z,28.42
2023-02-07T00:20:40.154Z,28.67
2023-02-07T00:23:15.461Z,25.23
2023-02-07T00:25:57.861Z,28.65
2023-02-07T00:28:34.196Z,26.98
2023-02-07T00:31:14.471Z,26.05
2023-02-07T00:33:54.554Z,25.23
2023-02-07T00:36:32.241Z,27.45
2023-02-07T00:39:10.733Z,26.23
2023-02-07T00:41:46.738Z,25.33
2023-02-07T00:44:22.172Z,27.02
2023-02-07T00:46:57.428Z,25.45
2023-02-07T00:49:35.323Z,25.00
2023-02-07T00:52:10.551Z,24.17
2023-02-07T00:54:46.690Z,28.52
2023-02-07T00:57:21.977Z,25.42
2023-02-07T00:59:58.452Z,24.75
2023-02-07T01:02:33.797Z,22.45
2023-02-07T01:05:12.100Z,31.08
2023-02-07T01:07:47.350Z,27.05
2023-02-07T01:10:24.954Z,27.42
2023-02-07T01:13:01.728Z,25.08
2023-02-07T01:15:39.931Z,25.17
2023-02-07T01:18:16.215Z,28.20
2023-02-07T01:20:54.360Z,26.13
2023-02-07T01:23:30.576Z,30.02
2023-02-07T01:26:08.500Z,25.10
2023-02-07T01:28:43.713Z,26.77
2023-02-07T01:31:22.299Z,27.10
2023-02-07T01:33:58.641Z,28.80
2023-02-07T01:36:36.665Z,24.98
2023-02-07T01:39:14.576Z,26.58
2023-02-07T01:41:50.886Z,23.65
2023-02-07T01:44:56.342Z,27.23
2023-02-07T01:47:32.709Z,26.85
2023-02-07T01:50:08.904Z,24.75
2023-02-07T01:52:46.997Z,26.00
2023-02-07T01:55:32.594Z,26.73
2023-02-07T01:58:10.274Z,22.92
2023-02-07T02:00:46.760Z,24.25
2023-02-07T02:03:22.202Z,25.33
2023-02-07T02:05:58.584Z,26.83
2023-02-07T02:08:36.703Z,27.77
2023-02-07T02:11:48.492Z,26.50
2023-02-07T02:14:39.654Z,24.30
2023-02-07T02:17:24.261Z,22.67
2023-02-07T02:20:28.683Z,25.02
2023-02-07T02:23:17.406Z,21.95
2023-02-07T02:26:19.119Z,23.92
2023-02-07T02:29:32.885Z,26.45
2023-02-07T02:32:34.356Z,22.25
2023-02-07T02:35:19.856Z,22.00
2023-02-07T02:38:02.865Z,25.33
2023-02-07T02:40:47.716Z,23.35
2023-02-07T02:43:32.240Z,23.13
2023-02-07T02:46:17.053Z,25.00
2023-02-07T02:49:00.459Z,24.92
2023-02-07T02:51:38.450Z,24.80
2023-02-07T02:54:33.118Z,22.65
2023-02-07T02:57:41.146Z,21.70
2023-02-07T03:00:37.781Z,22.33
2023-02-07T03:03:29.838Z,25.65
2023-02-07T03:06:17.572Z,27.45
2023-02-07T03:09:01.557Z,35.17
2023-02-07T03:11:42.172Z,36.33
2023-02-07T03:14:29.005Z,40.55
2023-02-07T03:17:16.488Z,37.17
2023-02-07T03:19:56.757Z,33.78
2023-02-07T03:22:33.571Z,32.58
2023-02-07T03:25:23.309Z,38.50
2023-02-07T03:28:00.147Z,33.40
2023-02-07T03:30:37.730Z,23.40
2023-02-07T03:33:16.196Z,24.60
2023-02-07T03:35:56.604Z,27.38
2023-02-07T03:38:32.136Z,30.08
2023-02-07T03:41:16.506Z,28.42
2023-02-07T03:43:53.678Z,28.17
2023-02-07T03:46:29.085Z,28.60
2023-02-07T03:49:04.295Z,33.85
2023-02-07T03:51:39.943Z,26.25
2023-02-07T03:54:15.698Z,23.65
2023-02-07T03:56:53.625Z,27.23
2023-02-07T03:59:29.282Z,21.90
2023-02-07T04:02:05.209Z,22.60
2023-02-07T04:04:40.816Z,26.75
2023-02-07T04:07:16.439Z,22.92
2023-02-07T04:09:51.887Z,22.70
2023-02-07T04:12:35.985Z,21.50
2023-02-07T04:15:13.959Z,20.27
2023-02-07T04:17:54.016Z,23.13
2023-02-07T04:20:29.105Z,22.05
2023-02-07T04:23:04.115Z,22.00
2023-02-07T04:25:39.266Z,20.88
2023-02-07T04:28:17.267Z,19.50
2023-02-07T04:31:03.302Z,16.83
2023-02-07T04:33:39.816Z,20.63
2023-02-07T04:36:15.136Z,20.48
2023-02-07T04:38:50.200Z,16.95
2023-02-07T04:41:25.267Z,20.58
2023-02-07T04:44:02.834Z,19.98
2023-02-07T04:46:37.828Z,21.88
2023-02-07T04:49:12.805Z,27.25
2023-02-07T04:51:47.742Z,17.33
2023-02-07T04:54:22.726Z,19.67
2023-02-07T04:56:58.053Z,18.30
2023-02-07T04:59:35.692Z,23.42
2023-02-07T05:02:11.003Z,17.98
2023-02-07T05:04:46.043Z,21.40
2023-02-07T05:07:21.504Z,25.98
2023-02-07T05:09:56.616Z,25.42
2023-02-07T05:12:31.720Z,22.33
2023-02-07T05:15:10.624Z,20.40
2023-02-07T05:17:45.682Z,20.83
2023-02-07T05:20:20.966Z,19.63
2023-02-07T05:22:56.290Z,22.02
2023-02-07T05:25:31.334Z,21.05
2023-02-07T05:28:06.479Z,20.20
2023-02-07T05:30:44.266Z,19.77
2023-02-07T05:33:16.800Z,20.92
2023-02-07T05:35:52.051Z,24.83
2023-02-07T05:38:27.354Z,21.77
2023-02-07T05:41:02.720Z,20.60
2023-02-07T05:43:37.868Z,19.33
2023-02-07T05:46:15.701Z,19.08
2023-02-07T05:48:50.922Z,21.15
2023-02-07T05:51:25.849Z,23.08
2023-02-07T05:54:00.998Z,18.17
2023-02-07T05:56:36.501Z,19.67
2023-02-07T05:59:11.684Z,20.63
2023-02-07T06:01:49.297Z,19.95
2023-02-07T06:04:24.603Z,21.20
2023-02-07T06:07:00.378Z,20.80
2023-02-07T06:09:35.380Z,20.48
2023-02-07T06:12:10.676Z,21.58
2023-02-07T06:14:45.808Z,22.43
2023-02-07T06:17:24.786Z,22.23
2023-02-07T06:19:59.757Z,18.52
2023-02-07T06:22:34.658Z,20.63
2023-02-07T06:25:12.046Z,21.45
2023-02-07T06:27:47.392Z,17.97
2023-02-07T06:30:22.902Z,18.50
2023-02-07T06:33:01.762Z,18.53
2023-02-07T06:35:36.896Z,20.83
2023-02-07T06:38:12.407Z,17.80
2023-02-07T06:40:47.918Z,23.15
2023-02-07T06:43:23.120Z,23.83
2023-02-07T06:45:58.155Z,21.13
2023-02-07T06:48:36.157Z,20.27
2023-02-07T06:51:11.340Z,22.50
2023-02-07T06:53:46.411Z,21.65
2023-02-07T06:56:21.463Z,21.33
2023-02-07T06:58:56.469Z,25.33
2023-02-07T07:01:31.501Z,19.05
2023-02-07T07:04:09.262Z,27.58
2023-02-07T07:06:44.347Z,22.73
2023-02-07T07:09:20.967Z,25.98
2023-02-07T07:11:55.904Z,22.27
2023-02-07T07:14:30.922Z,21.67
2023-02-07T07:17:05.827Z,23.77
2023-02-07T07:19:43.347Z,24.63
2023-02-07T07:22:19.250Z,21.33
2023-02-07T07:24:56.106Z,23.10
2023-02-07T07:27:31.308Z,30.30
2023-02-07T07:30:10.571Z,21.38
2023-02-07T07:32:45.722Z,26.42
2023-02-07T07:35:23.352Z,26.00
2023-02-07T07:37:58.551Z,21.30
2023-02-07T07:40:33.624Z,27.50
2023-02-07T07:43:08.593Z,24.15
2023-02-07T07:45:56.296Z,23.20
2023-02-07T07:48:31.645Z,21.35
2023-02-07T07:51:10.171Z,23.23
2023-02-07T07:53:45.200Z,20.42
2023-02-07T07:56:20.094Z,22.17
2023-02-07T07:58:55.046Z,24.15
2023-02-07T08:01:30.044Z,21.20
2023-02-07T08:04:05.291Z,27.02
2023-02-07T08:06:43.136Z,27.58
2023-02-07T08:09:20.133Z,28.83
2023-02-07T08:11:58.165Z,25.40
2023-02-07T08:14:33.254Z,33.65
2023-02-07T08:17:08.124Z,25.30
2023-02-07T08:19:44.766Z,28.30
2023-02-07T08:22:22.253Z,25.38
2023-02-07T08:24:57.166Z,20.92
2023-02-07T08:27:32.282Z,24.88
2023-02-07T08:30:09.311Z,29.50
2023-02-07T08:32:44.897Z,23.35
2023-02-07T08:35:20.089Z,23.02
2023-02-07T08:37:58.541Z,21.33
2023-02-07T08:40:33.445Z,19.48
2023-02-07T08:46:14.666Z,20.08
2023-02-07T08:48:50.321Z,19.80
2023-02-07T08:51:25.684Z,21.48
2023-02-07T08:54:06.249Z,18.77
2023-02-07T08:56:41.672Z,17.10
2023-02-07T08:59:17.934Z,18.15
2023-02-07T09:01:57.178Z,18.80
2023-02-07T09:04:36.556Z,17.52
2023-02-07T09:07:13.139Z,18.80
2023-02-07T09:09:50.926Z,18.67
2023-02-07T09:12:26.278Z,19.75
2023-02-07T09:15:01.455Z,20.58
2023-02-07T09:17:40.243Z,20.42
2023-02-07T09:20:15.894Z,18.02
2023-02-07T09:23:03.847Z,19.40
2023-02-07T09:25:44.181Z,15.95
2023-02-07T09:28:19.620Z,19.00
2023-02-07T09:30:55.333Z,16.70
2023-02-07T09:33:30.731Z,18.08
2023-02-07T09:36:06.656Z,18.25
2023-02-07T09:38:43.985Z,18.92
2023-02-07T09:41:27.982Z,19.40
2023-02-07T09:44:13.210Z,19.00
2023-02-07T09:46:54.604Z,20.30
2023-02-07T09:49:36.670Z,19.13
2023-02-07T09:52:18.126Z,19.65
2023-02-07T09:55:01.055Z,20.83
2023-02-07T09:57:47.205Z,18.50
2023-02-07T10:00:27.787Z,22.17
2023-02-07T10:03:12.750Z,18.35
2023-02-07T10:05:52.259Z,19.85
2023-02-07T10:08:36.386Z,19.08
2023-02-07T10:11:21.508Z,18.02
2023-02-07T10:14:20.929Z,21.73
2023-02-07T10:17:30.569Z,20.40
2023-02-07T10:20:31.007Z,22.13
2023-02-07T10:23:17.908Z,20.75
2023-02-07T10:26:09.749Z,22.35
2023-02-07T10:29:13.398Z,21.40
2023-02-07T10:31:51.554Z,23.00
2023-02-07T10:34:30.734Z,24.15
2023-02-07T10:37:20.972Z,25.40
2023-02-07T10:40:03.650Z,24.02
2023-02-07T10:42:46.308Z,20.05
2023-02-07T10:45:24.181Z,24.10
2023-02-07T10:48:00.144Z,23.02
2023-02-07T10:50:35.795Z,23.42
2023-02-07T10:53:11.492Z,22.70
2023-02-07T10:55:49.100Z,22.63
2023-02-07T10:58:27.069Z,24.30
2023-02-07T11:01:05.004Z,24.23
2023-02-07T11:03:42.230Z,27.38
2023-02-07T11:06:18.768Z,25.00
2023-02-07T11:08:54.011Z,22.00
2023-02-07T11:11:33.035Z,24.20
2023-02-07T11:14:10.889Z,21.42
2023-02-07T11:16:49.960Z,27.25
2023-02-07T11:19:28.269Z,27.73
2023-02-07T11:22:13.519Z,22.83
2023-02-07T11:24:50.279Z,27.23
2023-02-07T11:27:26.757Z,17.95
2023-02-07T11:30:09.966Z,20.25
2023-02-07T11:32:57.367Z,21.30
2023-02-07T11:35:33.113Z,20.88
2023-02-07T11:38:16.477Z,19.73
2023-02-07T11:40:53.144Z,21.38
2023-02-07T11:43:28.896Z,22.60
2023-02-07T11:46:09.600Z,22.13
2023-02-07T11:48:53.035Z,23.00
2023-02-07T11:51:28.925Z,19.73
2023-02-07T11:54:06.263Z,21.17
2023-02-07T11:56:43.778Z,28.52
2023-02-07T11:59:26.157Z,22.88
2023-02-07T12:02:04.749Z,20.52
2023-02-07T12:04:42.890Z,21.33
2023-02-07T12:07:22.611Z,23.60
2023-02-07T12:10:03.319Z,22.00
2023-02-07T12:12:45.970Z,19.83
2023-02-07T12:15:26.403Z,20.85
2023-02-07T12:18:08.064Z,24.50
2023-02-07T12:20:55.005Z,23.27
2023-02-07T12:23:43.559Z,23.55
2023-02-07T12:26:25.775Z,24.10
2023-02-07T12:29:26.213Z,25.20
2023-02-07T12:32:07.953Z,25.55
2023-02-07T12:34:52.050Z,23.25
2023-02-07T12:37:40.472Z,23.42
2023-02-07T12:40:24.625Z,22.15
2023-02-07T12:43:04.503Z,22.05
2023-02-07T12:45:59.630Z,24.25
2023-02-07T12:48:57.942Z,23.42
2023-02-07T12:51:46.673Z,25.60
2023-02-07T12:54:38.518Z,24.00
2023-02-07T12:57:20.767Z,23.10
2023-02-07T13:00:06.661Z,22.52
2023-02-07T13:03:00.797Z,24.38
2023-02-07T13:06:04.231Z,24.10
2023-02-07T13:08:52.970Z,22.80
2023-02-07T13:11:40.393Z,25.77
2023-02-07T13:14:32.284Z,24.77
2023-02-07T13:17:31.761Z,24.25
2023-02-07T13:20:14.093Z,23.70
2023-02-07T13:23:00.740Z,22.67
2023-02-07T13:25:39.824Z,21.58
